MSC Maya — 3FNF8 — position and weather

sailwx.info

Track history (hours):
 
Tides and Currents Weather Stations Pressure Air Temp Water Temp Dewpoint Dewpoint Depression Visibility Wind Speed Wind Dir Waves Ship Positions

MSC Maya

Last reported at 2014-Aug-16 22:30 UTC. Time now 2014-Aug-30 00:27 UTC.
Position S 31°20' E 016°34'.
Warning: this ship's position is 13 days out of date.

Length 180 m; draft 8.5 m.

Type: Cargo ship. MMSI: 351384000.

Date/timePositionNaut miles runAvg speedWind from/ knotsBaromVisibWave heightAir tempDewpointWater temp
2014-Aug-16 22:30S 31°20' E 016°34'1614.5
2014-Aug-16 21:25S 31°34' E 016°41'2914.5
2014-Aug-16 19:27S 32°01' E 016°53'1714.2
2014-Aug-16 18:13S 32°17' E 016°60'1514.7
2014-Aug-16 17:11S 32°32' E 017°07'2715.5
2014-Aug-16 15:28S 32°56' E 017°18'4514.2
2014-Aug-16 12:18S 33°29' E 017°56'2813.8
2014-Aug-16 10:18S 33°49' E 018°18'811.2
2014-Aug-16 09:34S 33°54' E 018°26'1 0.7
2014-Aug-16 08:30S 33°55' E 018°26'0 0.0
2014-Aug-16 07:24S 33°55' E 018°26'0 0.0
2014-Aug-16 06:30S 33°55' E 018°26'0 0.0
2014-Aug-16 05:33S 33°55' E 018°26'0 0.0
2014-Aug-16 04:30S 33°55' E 018°26'0 0.0
2014-Aug-16 03:24S 33°55' E 018°26'0 0.0
2014-Aug-16 02:33S 33°55' E 018°26'0 0.0
2014-Aug-16 01:33S 33°55' E 018°26'0 0.0
2014-Aug-16 00:30S 33°55' E 018°26'0 0.0
2014-Aug-15 23:33S 33°55' E 018°26'0 0.0
2014-Aug-15 22:33S 33°55' E 018°26'0 0.0
2014-Aug-15 21:30S 33°55' E 018°26'0 0.0
2014-Aug-15 20:33S 33°55' E 018°26'0 0.0
2014-Aug-15 19:33S 33°55' E 018°26'3 3.0
2014-Aug-15 18:33S 33°52' E 018°26'0 0.4
2014-Aug-15 17:33S 33°52' E 018°26'0 0.0
2014-Aug-15 16:28S 33°52' E 018°26'0 0.0
2014-Aug-15 15:33S 33°52' E 018°26'0 0.0
2014-Aug-15 14:32S 33°52' E 018°26'0 0.1
2014-Aug-15 13:33S 33°52' E 018°26'0 0.0
2014-Aug-15 12:32S 33°52' E 018°26'0 0.1
2014-Aug-15 11:32S 33°52' E 018°27'0 0.1
2014-Aug-15 10:33S 33°52' E 018°26'0 0.0
2014-Aug-15 09:32S 33°52' E 018°26'2 2.2
2014-Aug-15 08:33S 33°53' E 018°24'1211.7
2014-Aug-15 07:30S 34°02' E 018°14'7 6.9
2014-Aug-15 06:33S 34°08' E 018°10'7 7.4
2014-Aug-15 05:34S 34°15' E 018°13'8 7.9
2014-Aug-15 04:32S 34°22' E 018°16'8 8.2
2014-Aug-15 03:34S 34°28' E 018°24'9 9.2
2014-Aug-15 02:34S 34°32' E 018°34'1010.1
2014-Aug-15 01:33S 34°35' E 018°45'1010.0
2014-Aug-15 00:34S 34°39' E 018°56'10 9.8
2014-Aug-14 23:33S 34°43' E 019°07'1410.1
2014-Aug-14 22:07S 34°48' E 019°24'1013.7
2014-Aug-14 21:25S 34°52' E 019°34'1513.6
2014-Aug-14 20:19S 34°56' E 019°52'1613.7
2014-Aug-14 19:09S 34°54' E 020°11'1313.8
2014-Aug-14 18:15S 34°52' E 020°26'1214.0
2014-Aug-14 17:24S 34°50' E 020°40'1213.9
2014-Aug-14 16:31S 34°48' E 020°55'1813.8
2014-Aug-14 15:13S 34°45' E 021°17'2713.8
2014-Aug-14 13:16S 34°40' E 021°48'1614.5
2014-Aug-14 12:09S 34°38' E 022°08'1215.0
2014-Aug-14 11:20S 34°36' E 022°23'1112.9
2014-Aug-14 10:31S 34°34' E 022°35'13712.2
2014-Aug-13 23:17S 34°14' E 025°20'1313.9
2014-Aug-13 22:20S 34°10' E 025°35'2513.9
2014-Aug-13 20:31S 34°02' E 026°04'2913.5
2014-Aug-13 18:22S 33°51' E 026°37'1312.9
2014-Aug-13 17:19S 33°44' E 026°51'2413.4
2014-Aug-13 15:31S 33°32' E 027°16'2016.1
2014-Aug-13 14:17S 33°21' E 027°35'14115.8
2014-Aug-13 05:21S 31°42' E 029°35'1215.2
2014-Aug-13 04:33S 31°34' E 029°46'124 3.6
2014-Aug-11 18:27S 29°51' E 031°07'2 1.6
2014-Aug-11 17:04S 29°49' E 031°07'6 3.7
2014-Aug-11 15:27S 29°44' E 031°10'  
2014-Aug-08 03:07S 29°38' E 031°12'  
Track history (hours):
 
Tides and Currents Weather Stations Pressure Air Temp Water Temp Dewpoint Dewpoint Depression Visibility Wind Speed Wind Dir Waves Ship Positions

MSC Maya

Last reported at 2014-Aug-16 22:30 UTC. Time now 2014-Aug-30 00:27 UTC.
Position S 31°20' E 016°34'.
Warning: this ship's position is 13 days out of date.

Length 180 m; draft 8.5 m.

Type: Cargo ship. MMSI: 351384000.

Date/timePositionNaut miles runAvg speedWind from/ knotsBaromVisibWave heightAir tempDewpointWater temp
2014-Aug-16 22:30S 31°20' E 016°34'1614.5
2014-Aug-16 21:25S 31°34' E 016°41'2914.5
2014-Aug-16 19:27S 32°01' E 016°53'1714.2
2014-Aug-16 18:13S 32°17' E 016°60'1514.7
2014-Aug-16 17:11S 32°32' E 017°07'2715.5
2014-Aug-16 15:28S 32°56' E 017°18'4514.2
2014-Aug-16 12:18S 33°29' E 017°56'2813.8
2014-Aug-16 10:18S 33°49' E 018°18'811.2
2014-Aug-16 09:34S 33°54' E 018°26'1 0.7
2014-Aug-16 08:30S 33°55' E 018°26'0 0.0
2014-Aug-16 07:24S 33°55' E 018°26'0 0.0
2014-Aug-16 06:30S 33°55' E 018°26'0 0.0
2014-Aug-16 05:33S 33°55' E 018°26'0 0.0
2014-Aug-16 04:30S 33°55' E 018°26'0 0.0
2014-Aug-16 03:24S 33°55' E 018°26'0 0.0
2014-Aug-16 02:33S 33°55' E 018°26'0 0.0
2014-Aug-16 01:33S 33°55' E 018°26'0 0.0
2014-Aug-16 00:30S 33°55' E 018°26'0 0.0
2014-Aug-15 23:33S 33°55' E 018°26'0 0.0
2014-Aug-15 22:33S 33°55' E 018°26'0 0.0
2014-Aug-15 21:30S 33°55' E 018°26'0 0.0
2014-Aug-15 20:33S 33°55' E 018°26'0 0.0
2014-Aug-15 19:33S 33°55' E 018°26'3 3.0
2014-Aug-15 18:33S 33°52' E 018°26'0 0.4
2014-Aug-15 17:33S 33°52' E 018°26'0 0.0
2014-Aug-15 16:28S 33°52' E 018°26'0 0.0
2014-Aug-15 15:33S 33°52' E 018°26'0 0.0
2014-Aug-15 14:32S 33°52' E 018°26'0 0.1
2014-Aug-15 13:33S 33°52' E 018°26'0 0.0
2014-Aug-15 12:32S 33°52' E 018°26'0 0.1
2014-Aug-15 11:32S 33°52' E 018°27'0 0.1
2014-Aug-15 10:33S 33°52' E 018°26'0 0.0
2014-Aug-15 09:32S 33°52' E 018°26'2 2.2
2014-Aug-15 08:33S 33°53' E 018°24'1211.7
2014-Aug-15 07:30S 34°02' E 018°14'7 6.9
2014-Aug-15 06:33S 34°08' E 018°10'7 7.4
2014-Aug-15 05:34S 34°15' E 018°13'8 7.9
2014-Aug-15 04:32S 34°22' E 018°16'8 8.2
2014-Aug-15 03:34S 34°28' E 018°24'9 9.2
2014-Aug-15 02:34S 34°32' E 018°34'1010.1
2014-Aug-15 01:33S 34°35' E 018°45'1010.0
2014-Aug-15 00:34S 34°39' E 018°56'10 9.8
2014-Aug-14 23:33S 34°43' E 019°07'1410.1
2014-Aug-14 22:07S 34°48' E 019°24'1013.7
2014-Aug-14 21:25S 34°52' E 019°34'1513.6
2014-Aug-14 20:19S 34°56' E 019°52'1613.7
2014-Aug-14 19:09S 34°54' E 020°11'1313.8
2014-Aug-14 18:15S 34°52' E 020°26'1214.0
2014-Aug-14 17:24S 34°50' E 020°40'1213.9
2014-Aug-14 16:31S 34°48' E 020°55'1813.8
2014-Aug-14 15:13S 34°45' E 021°17'2713.8
2014-Aug-14 13:16S 34°40' E 021°48'1614.5
2014-Aug-14 12:09S 34°38' E 022°08'1215.0
2014-Aug-14 11:20S 34°36' E 022°23'1112.9
2014-Aug-14 10:31S 34°34' E 022°35'13712.2
2014-Aug-13 23:17S 34°14' E 025°20'1313.9
2014-Aug-13 22:20S 34°10' E 025°35'2513.9
2014-Aug-13 20:31S 34°02' E 026°04'2913.5
2014-Aug-13 18:22S 33°51' E 026°37'1312.9
2014-Aug-13 17:19S 33°44' E 026°51'2413.4
2014-Aug-13 15:31S 33°32' E 027°16'2016.1
2014-Aug-13 14:17S 33°21' E 027°35'14115.8
2014-Aug-13 05:21S 31°42' E 029°35'1215.2
2014-Aug-13 04:33S 31°34' E 029°46'124 3.6
2014-Aug-11 18:27S 29°51' E 031°07'2 1.6
2014-Aug-11 17:04S 29°49' E 031°07'6 3.7
2014-Aug-11 15:27S 29°44' E 031°10'  
2014-Aug-08 03:07S 29°38' E 031°12'  

Dump ship's entire track history